S/y Shadow — ZJL8527 — position and weather

sailwx.info

Track history (hours):
 
Tides and Currents Weather Stations Pressure Air Temp Water Temp Dewpoint Dewpoint Depression Visibility Wind Speed Wind Dir Waves Ship Positions

S/y Shadow

Last reported at 2018-May-15 13:31 UTC. Time now 2018-May-22 02:02 UTC.
Position N 44°24' E 008°56'.

Length 30 m.

Type: Sailing vessel. MMSI: 378111821.

Date/timePositionNaut miles runAvg speedWind from/ knotsBaromVisibWave heightAir tempDewpointWater temp
2018-May-15 13:31N 44°24' E 008°56'0 0.0
2018-May-15 13:25N 44°24' E 008°56'0 0.0
2018-May-15 12:57N 44°24' E 008°56'0 0.0
2018-May-15 12:30N 44°24' E 008°56'0 0.0
2018-May-15 11:59N 44°24' E 008°56'0 0.0
2018-May-15 11:29N 44°24' E 008°56'0 0.1
2018-May-15 10:59N 44°24' E 008°56'0 0.0
2018-May-15 10:29N 44°24' E 008°56'0 0.0
2018-May-15 09:56N 44°24' E 008°56'0 0.0
2018-May-15 09:26N 44°24' E 008°56'0 0.0
2018-May-15 08:56N 44°24' E 008°56'0 0.0
2018-May-15 08:29N 44°24' E 008°56'2 4.2
2018-May-15 08:00N 44°22' E 008°58'2 3.9
2018-May-15 07:30N 44°20' E 008°57'2 4.9
2018-May-15 07:00N 44°22' E 008°55'1 2.9
2018-May-15 06:30N 44°23' E 008°53'3 6.7
2018-May-15 06:00N 44°25' E 008°49'1 1.9
2018-May-15 05:30N 44°25' E 008°50'0 0.0
2018-May-15 05:00N 44°25' E 008°50'0 0.0
2018-May-15 04:30N 44°25' E 008°50'0 0.0
2018-May-15 04:00N 44°25' E 008°50'0 0.0
2018-May-15 03:30N 44°25' E 008°50'0 0.0
2018-May-15 03:00N 44°25' E 008°50'0 0.0
2018-May-15 02:30N 44°25' E 008°50'0 0.0
2018-May-15 01:57N 44°25' E 008°50'0 0.0
2018-May-15 01:30N 44°25' E 008°50'0 0.0
2018-May-15 01:00N 44°25' E 008°50'0 0.0
2018-May-15 00:30N 44°25' E 008°50'0 0.0
2018-May-15 00:00N 44°25' E 008°50'0 0.0
2018-May-14 23:30N 44°25' E 008°50'0 0.0
2018-May-14 23:00N 44°25' E 008°50'0 0.0
2018-May-14 22:30N 44°25' E 008°50'0 0.0
2018-May-14 22:00N 44°25' E 008°50'0 0.0
2018-May-14 21:30N 44°25' E 008°50'0 0.0
2018-May-14 21:00N 44°25' E 008°50'0 0.0
2018-May-14 20:30N 44°25' E 008°50'0 0.0
2018-May-14 20:00N 44°25' E 008°50'0 0.0
2018-May-14 19:30N 44°25' E 008°50'0 0.0
2018-May-14 19:00N 44°25' E 008°50'0 0.0
2018-May-14 18:30N 44°25' E 008°50'0 0.0
2018-May-14 18:00N 44°25' E 008°50'0 0.0
2018-May-14 17:30N 44°25' E 008°50'0 0.0
2018-May-14 17:00N 44°25' E 008°50'0 0.0
2018-May-14 16:30N 44°25' E 008°50'0 0.0
2018-May-14 15:59N 44°25' E 008°50'0 0.0
2018-May-14 15:30N 44°25' E 008°50'0 0.0
2018-May-14 14:55N 44°25' E 008°50'0 0.0
2018-May-14 14:25N 44°25' E 008°50'0 0.0
2018-May-14 13:55N 44°25' E 008°50'0 0.0
2018-May-14 13:30N 44°25' E 008°50'0 0.0
2018-May-14 12:57N 44°25' E 008°50'0 0.0
2018-May-14 12:28N 44°25' E 008°50'0 0.0
2018-May-14 11:55N 44°25' E 008°50'0 0.0
2018-May-14 11:30N 44°25' E 008°50'0 0.0
2018-May-14 11:00N 44°25' E 008°50'0 0.0
2018-May-14 10:30N 44°25' E 008°50'0 0.0
2018-May-14 10:00N 44°25' E 008°50'0 0.0
2018-May-14 09:30N 44°25' E 008°50'0 0.0
2018-May-14 09:00N 44°25' E 008°50'0 0.0
2018-May-14 08:30N 44°25' E 008°50'0 0.0
2018-May-14 08:00N 44°25' E 008°50'0 0.0
2018-May-14 07:29N 44°25' E 008°50'0 0.0
2018-May-14 06:58N 44°25' E 008°50'0 0.0
2018-May-14 06:25N 44°25' E 008°50'0 0.0
2018-May-14 05:55N 44°25' E 008°50'0 0.0
2018-May-14 05:25N 44°25' E 008°50'0 0.0
2018-May-14 04:55N 44°25' E 008°50'0 0.0
2018-May-14 04:25N 44°25' E 008°50'0 0.0
2018-May-14 04:00N 44°25' E 008°50'0 0.0
2018-May-14 03:26N 44°25' E 008°50'0 0.0
2018-May-14 02:53N 44°25' E 008°50'0 0.0
2018-May-14 02:26N 44°25' E 008°50'0 0.0
2018-May-14 01:59N 44°25' E 008°50'0 0.0
2018-May-14 01:29N 44°25' E 008°50'0 0.0
2018-May-14 00:57N 44°25' E 008°50'0 0.0
2018-May-14 00:27N 44°25' E 008°50'0 0.0
2018-May-13 23:57N 44°25' E 008°50'0 0.0
2018-May-13 23:27N 44°25' E 008°50'0 0.0
2018-May-13 22:57N 44°25' E 008°50'0 0.0
2018-May-13 22:30N 44°25' E 008°50'0 0.0
2018-May-13 22:00N 44°25' E 008°50'0 0.0
2018-May-13 21:29N 44°25' E 008°50'0 0.0
2018-May-13 20:59N 44°25' E 008°50'0 0.0
2018-May-13 20:30N 44°25' E 008°50'0 0.0
2018-May-13 20:00N 44°25' E 008°50'0 0.0
2018-May-13 19:30N 44°25' E 008°50'0 0.0
2018-May-13 18:56N 44°25' E 008°50'0 0.0
2018-May-13 18:30N 44°25' E 008°50'0 0.0
2018-May-13 18:00N 44°25' E 008°50'0 0.0
2018-May-13 17:27N 44°25' E 008°50'0 0.0
2018-May-13 17:00N 44°25' E 008°50'0 0.0
2018-May-13 16:27N 44°25' E 008°50'0 0.0
2018-May-13 16:00N 44°25' E 008°50'0 0.0
2018-May-13 15:29N 44°25' E 008°50'0 0.0
2018-May-13 14:59N 44°25' E 008°50'0 0.0
2018-May-13 14:29N 44°25' E 008°50'0 0.0
2018-May-13 13:59N 44°25' E 008°50'0 0.0
2018-May-13 13:30N 44°25' E 008°50'0 0.0
2018-May-13 12:58N 44°25' E 008°50'0 0.0
2018-May-13 12:27N 44°25' E 008°50'0 0.0
2018-May-13 11:57N 44°25' E 008°50'0 0.0
2018-May-13 11:27N 44°25' E 008°50'0 0.0
2018-May-13 10:57N 44°25' E 008°50'0 0.0
2018-May-13 10:30N 44°25' E 008°50'0 0.0
2018-May-13 09:59N 44°25' E 008°50'0 0.0
2018-May-13 09:29N 44°25' E 008°50'0 0.0
2018-May-13 08:56N 44°25' E 008°50'0 0.0
2018-May-13 08:26N 44°25' E 008°50'0 0.0
2018-May-13 07:54N 44°25' E 008°50'0 0.0
2018-May-13 07:29N 44°25' E 008°50'0 0.0
2018-May-13 06:56N 44°25' E 008°50'0 0.0
2018-May-13 06:29N 44°25' E 008°50'0 0.0
2018-May-13 05:56N 44°25' E 008°50'0 0.0
2018-May-13 05:29N 44°25' E 008°50'0 0.0
2018-May-13 04:59N 44°25' E 008°50'0 0.0
2018-May-13 04:29N 44°25' E 008°50'0 0.0
2018-May-13 04:00N 44°25' E 008°50'0 0.0
2018-May-13 03:29N 44°25' E 008°50'0 0.0
2018-May-13 02:58N 44°25' E 008°50'0 0.0
2018-May-13 02:28N 44°25' E 008°50'0 0.0
2018-May-13 01:58N 44°25' E 008°50'0 0.0
2018-May-13 01:30N 44°25' E 008°50'0 0.0
2018-May-13 00:57N 44°25' E 008°50'0 0.0
2018-May-13 00:30N 44°25' E 008°50'0 0.0
2018-May-13 00:00N 44°25' E 008°50'0 0.0
2018-May-12 23:30N 44°25' E 008°50'0 0.0
2018-May-12 23:00N 44°25' E 008°50'0 0.0
2018-May-12 22:30N 44°25' E 008°50'0 0.0
2018-May-12 22:00N 44°25' E 008°50'0 0.0
2018-May-12 21:30N 44°25' E 008°50'0 0.0
2018-May-12 21:00N 44°25' E 008°50'0 0.0
2018-May-12 20:30N 44°25' E 008°50'0 0.0
2018-May-12 19:57N 44°25' E 008°50'0 0.0
2018-May-12 19:27N 44°25' E 008°50'0 0.0
2018-May-12 18:57N 44°25' E 008°50'0 0.0
2018-May-12 18:25N 44°25' E 008°50'0 0.0
2018-May-12 17:58N 44°25' E 008°50'0 0.0
2018-May-12 17:29N 44°25' E 008°50'0 0.0
2018-May-12 16:59N 44°25' E 008°50'0 0.0
2018-May-12 16:29N 44°25' E 008°50'0 0.0
2018-May-12 16:00N 44°25' E 008°50'0 0.0
2018-May-12 15:28N 44°25' E 008°50'2 3.0
2018-May-12 14:58N 44°23' E 008°50'2 3.0
2018-May-12 14:28N 44°25' E 008°50'0 0.0
2018-May-12 13:58N 44°25' E 008°50'0 0.0
2018-May-12 13:26N 44°25' E 008°50'0 0.0
2018-May-12 12:57N 44°25' E 008°50'0 0.0
2018-May-12 12:30N 44°25' E 008°50'0 0.0
2018-May-12 12:00N 44°25' E 008°50'2 3.1
2018-May-12 11:30N 44°23' E 008°50'2 3.1
2018-May-12 11:00N 44°25' E 008°50'0 0.0
2018-May-12 10:27N 44°25' E 008°50'0 0.0
2018-May-12 09:58N 44°25' E 008°50'0 0.0
2018-May-12 09:28N 44°25' E 008°50'0 0.0
2018-May-12 08:58N 44°25' E 008°50'0 0.0
2018-May-12 08:28N 44°25' E 008°50'0 0.0
2018-May-12 08:00N 44°25' E 008°50'0 0.0
2018-May-12 07:28N 44°25' E 008°50'0 0.0
2018-May-12 06:58N 44°25' E 008°50'0 0.0
2018-May-12 06:28N 44°25' E 008°50'0 0.0
2018-May-12 05:58N 44°25' E 008°50'0 0.0
2018-May-12 05:28N 44°25' E 008°50'0 0.0
2018-May-12 04:58N 44°25' E 008°50'0 0.0
2018-May-12 04:30N 44°25' E 008°50'0 0.0
2018-May-12 03:55N 44°25' E 008°50'0 0.0
2018-May-12 03:25N 44°25' E 008°50'0 0.0
2018-May-12 02:55N 44°25' E 008°50'0 0.0
2018-May-12 02:25N 44°25' E 008°50'0 0.0
2018-May-12 01:55N 44°25' E 008°50'0 0.0
2018-May-12 01:25N 44°25' E 008°50'0 0.0
2018-May-12 00:55N 44°25' E 008°50'0 0.0
2018-May-12 00:25N 44°25' E 008°50'0 0.0
2018-May-12 00:00N 44°25' E 008°50'0 0.0
2018-May-11 23:30N 44°25' E 008°50'0 0.0
2018-May-11 23:00N 44°25' E 008°50'0 0.0
2018-May-11 22:30N 44°25' E 008°50'0 0.0
2018-May-11 21:59N 44°25' E 008°50'0 0.0
2018-May-11 21:29N 44°25' E 008°50'0 0.0
2018-May-11 20:59N 44°25' E 008°50'0 0.0
2018-May-11 20:29N 44°25' E 008°50'0 0.0
2018-May-11 19:59N 44°25' E 008°50'0 0.0
2018-May-11 19:28N 44°25' E 008°50'0 0.0
2018-May-11 18:58N 44°25' E 008°50'0 0.0
2018-May-11 18:26N 44°25' E 008°50'0 0.0
2018-May-11 17:56N 44°25' E 008°50'0 0.0
2018-May-11 17:30N 44°25' E 008°50'0 0.0
2018-May-11 17:00N 44°25' E 008°50'0 0.0
2018-May-11 16:30N 44°25' E 008°50'0 0.0
2018-May-11 16:00N 44°25' E 008°50'0 0.0
2018-May-11 15:29N 44°25' E 008°50'0 0.0
2018-May-11 14:59N 44°25' E 008°50'0 0.0
2018-May-11 14:29N 44°25' E 008°50'0 0.0
2018-May-11 13:59N 44°25' E 008°50'0 0.0
2018-May-11 13:30N 44°25' E 008°50'0 0.0
2018-May-11 12:59N 44°25' E 008°50'0 0.0
2018-May-11 12:28N 44°25' E 008°50'0 0.0
2018-May-11 11:58N 44°25' E 008°50'0 0.0
2018-May-11 11:28N 44°25' E 008°50'0 0.0
2018-May-11 10:58N 44°25' E 008°50'0 0.0
2018-May-11 10:30N 44°25' E 008°50'0 0.0
2018-May-11 10:00N 44°25' E 008°50'0 0.0
2018-May-11 09:30N 44°25' E 008°50'0 0.0
2018-May-11 09:00N 44°25' E 008°50'0 0.0
2018-May-11 08:30N 44°25' E 008°50'0 0.0
2018-May-11 08:00N 44°25' E 008°50'0 0.0
2018-May-11 07:30N 44°25' E 008°50'1 2.9
2018-May-11 07:00N 44°23' E 008°50'1 2.8
2018-May-11 06:27N 44°25' E 008°50'0 0.0
2018-May-11 05:54N 44°25' E 008°50'0 0.0
2018-May-11 05:27N 44°25' E 008°50'0 0.0
2018-May-11 04:57N 44°25' E 008°50'0 0.0
2018-May-11 04:27N 44°25' E 008°50'0 0.0
2018-May-11 03:57N 44°25' E 008°50'0 0.0
2018-May-11 03:25N 44°25' E 008°50'0 0.0
2018-May-11 02:55N 44°25' E 008°50'0 0.0
2018-May-11 02:25N 44°25' E 008°50'0 0.0
2018-May-11 01:55N 44°25' E 008°50'0 0.0
2018-May-11 01:28N 44°25' E 008°50'0 0.0
2018-May-11 00:58N 44°25' E 008°50'0 0.0
2018-May-11 00:29N 44°25' E 008°50'0 0.0
2018-May-10 23:53N 44°25' E 008°50'0 0.0
2018-May-10 23:24N 44°25' E 008°50'0 0.0
2018-May-10 22:57N 44°25' E 008°50'0 0.0
2018-May-10 22:30N 44°25' E 008°50'0 0.0
2018-May-10 21:52N 44°25' E 008°50'0 0.0
2018-May-10 21:25N 44°25' E 008°50'0 0.0
2018-May-10 20:55N 44°25' E 008°50'0 0.0
2018-May-10 20:28N 44°25' E 008°50'0 0.0
2018-May-10 19:58N 44°25' E 008°50'0 0.0
2018-May-10 19:28N 44°25' E 008°50'0 0.0
2018-May-10 18:57N 44°25' E 008°50'0 0.0
2018-May-10 18:19N 44°25' E 008°50'0 0.0
2018-May-10 17:57N 44°25' E 008°50'0 0.0
2018-May-10 17:28N 44°25' E 008°50'0 0.0
2018-May-10 17:00N 44°25' E 008°50'2 2.2
2018-May-10 16:20N 44°23' E 008°50'2 4.2
2018-May-10 15:58N 44°25' E 008°50'0 0.0
2018-May-10 15:30N 44°25' E 008°50'0 0.0
2018-May-10 15:00N 44°25' E 008°50'0 0.0
2018-May-10 14:31N 44°25' E 008°50'0 0.0
2018-May-10 14:00N 44°25' E 008°50'0 0.0
2018-May-10 13:27N 44°25' E 008°50'0 0.0
2018-May-10 12:59N 44°25' E 008°50'0 0.0
2018-May-10 12:28N 44°25' E 008°50'0 0.0
2018-May-10 11:49N 44°25' E 008°50'0 0.0
2018-May-10 11:25N 44°25' E 008°50'0 0.0
2018-May-10 10:52N 44°25' E 008°50'0 0.0
2018-May-10 10:25N 44°25' E 008°50'0 0.0
2018-May-10 09:55N 44°25' E 008°50'0 0.0
2018-May-10 09:25N 44°25' E 008°50'0 0.0
2018-May-10 08:55N 44°25' E 008°50'0 0.0
2018-May-10 08:25N 44°25' E 008°50'0 0.0
2018-May-10 07:55N 44°25' E 008°50'0 0.0
2018-May-10 07:28N 44°25' E 008°50'0 0.0
2018-May-10 06:58N 44°25' E 008°50'0 0.0
2018-May-10 06:25N 44°25' E 008°50'0 0.0
2018-May-10 05:55N 44°25' E 008°50'0 0.0
2018-May-10 05:23N 44°25' E 008°50'0 0.0
2018-May-10 04:59N 44°25' E 008°50'0 0.0
2018-May-10 04:29N 44°25' E 008°50'0 0.0
2018-May-10 03:59N 44°25' E 008°50'0 0.0
2018-May-10 03:30N 44°25' E 008°50'0 0.0
2018-May-10 03:00N 44°25' E 008°50'0 0.0
2018-May-10 02:30N 44°25' E 008°50'0 0.0
2018-May-10 01:58N 44°25' E 008°50'0 0.0
2018-May-10 01:28N 44°25' E 008°50'0 0.0
2018-May-10 00:58N 44°25' E 008°50'0 0.0
2018-May-10 00:28N 44°25' E 008°50'0 0.0
2018-May-10 00:00N 44°25' E 008°50'0 0.0
2018-May-09 23:30N 44°25' E 008°50'0 0.0
2018-May-09 22:57N 44°25' E 008°50'0 0.0
2018-May-09 22:30N 44°25' E 008°50'0 0.0
2018-May-09 21:58N 44°25' E 008°50'0 0.0
2018-May-09 21:28N 44°25' E 008°50'0 0.0
2018-May-09 20:58N 44°25' E 008°50'0 0.0
2018-May-09 20:28N 44°25' E 008°50'0 0.0
2018-May-09 20:00N 44°25' E 008°50'0 0.0
2018-May-09 19:30N 44°25' E 008°50'0 0.0
2018-May-09 18:56N 44°25' E 008°50'0 0.0
2018-May-09 18:28N 44°25' E 008°50'0 0.0
2018-May-09 17:55N 44°25' E 008°50'0 0.0
2018-May-09 17:19N 44°25' E 008°50'0 0.0
2018-May-09 16:55N 44°25' E 008°50'0 0.0
2018-May-09 16:25N 44°25' E 008°50'0 0.0
2018-May-09 16:00N 44°25' E 008°50'0 0.0
2018-May-09 15:30N 44°25' E 008°50'0 0.0
2018-May-09 15:00N 44°25' E 008°50'0 0.0
2018-May-09 14:30N 44°25' E 008°50'0 0.0
2018-May-09 13:59N 44°25' E 008°50'0 0.0
2018-May-09 13:30N 44°25' E 008°50'0 0.0
2018-May-09 12:55N 44°25' E 008°50'0 0.0
2018-May-09 12:25N 44°25' E 008°50'0 0.0
2018-May-09 11:57N 44°25' E 008°50'0 0.0
2018-May-09 11:25N 44°25' E 008°50'0 0.0
2018-May-09 10:55N 44°25' E 008°50'0 0.0
2018-May-09 10:30N 44°25' E 008°50'0 0.0
2018-May-09 10:00N 44°25' E 008°50'0 0.0
2018-May-09 09:30N 44°25' E 008°50'0 0.0
2018-May-09 09:00N 44°25' E 008°50'0 0.0
2018-May-09 08:25N 44°25' E 008°50'0 0.0
2018-May-09 07:58N 44°25' E 008°50'0 0.0
2018-May-09 07:28N 44°25' E 008°50'0 0.0
2018-May-09 07:00N 44°25' E 008°50'0 0.0
2018-May-09 06:27N 44°25' E 008°50'0 0.0
2018-May-09 06:00N 44°25' E 008°50'0 0.0
2018-May-09 05:23N 44°25' E 008°50'0 0.0
2018-May-09 04:58N 44°25' E 008°50'0 0.0
2018-May-09 04:27N 44°25' E 008°50'0 0.0
2018-May-09 03:57N 44°25' E 008°50'0 0.0
2018-May-09 03:27N 44°25' E 008°50'0 0.0
2018-May-09 02:57N 44°25' E 008°50'0 0.0
2018-May-09 02:27N 44°25' E 008°50'0 0.0
2018-May-09 01:57N 44°25' E 008°50'0 0.0
2018-May-09 01:27N 44°25' E 008°50'0 0.0
2018-May-09 01:00N 44°25' E 008°50'0 0.0
2018-May-09 00:25N 44°25' E 008°50'0 0.0
2018-May-08 23:55N 44°25' E 008°50'0 0.0
2018-May-08 23:25N 44°25' E 008°50'0 0.0
2018-May-08 22:55N 44°25' E 008°50'0 0.0
2018-May-08 22:29N 44°25' E 008°50'0 0.0
2018-May-08 21:59N 44°25' E 008°50'0 0.0
2018-May-08 21:29N 44°25' E 008°50'0 0.0
2018-May-08 20:59N 44°25' E 008°50'0 0.0
2018-May-08 20:30N 44°25' E 008°50'0 0.0
2018-May-08 20:00N 44°25' E 008°50'0 0.0
2018-May-08 19:30N 44°25' E 008°50'0 0.0
2018-May-08 18:56N 44°25' E 008°50'0 0.0
2018-May-08 18:26N 44°25' E 008°50'0 0.0
2018-May-08 17:59N 44°25' E 008°50'0 0.0
2018-May-08 17:29N 44°25' E 008°50'0 0.0
2018-May-08 16:59N 44°25' E 008°50'0 0.0
2018-May-08 16:29N 44°25' E 008°50'0 0.0
2018-May-08 15:58N 44°25' E 008°50'0 0.0
2018-May-08 15:28N 44°25' E 008°50'0 0.0
2018-May-08 14:59N 44°25' E 008°50'0 0.0
2018-May-08 14:29N 44°25' E 008°50'0 0.0
2018-May-08 13:59N 44°25' E 008°50'0 0.0
2018-May-08 13:30N 44°25' E 008°50'0 0.0
2018-May-08 12:58N 44°25' E 008°50'0 0.0
2018-May-08 12:28N 44°25' E 008°50'0 0.0
2018-May-08 11:59N 44°25' E 008°50'0 0.0
2018-May-08 11:28N 44°25' E 008°50'0 0.0
2018-May-08 10:58N 44°25' E 008°50'0 0.0
2018-May-08 10:29N 44°25' E 008°50'0 0.0
2018-May-08 09:59N 44°25' E 008°50'0 0.0
2018-May-08 09:29N 44°25' E 008°50'0 0.0
2018-May-08 08:53N 44°25' E 008°50'0 0.0
2018-May-08 08:29N 44°25' E 008°50'0 0.0
2018-May-08 07:59N 44°25' E 008°50'0 0.0
2018-May-08 07:30N 44°25' E 008°50'0 0.0
2018-May-08 06:57N 44°25' E 008°50'0 0.0
2018-May-08 06:30N 44°25' E 008°50'0 0.0
2018-May-08 05:54N 44°25' E 008°50'0 0.0
2018-May-08 05:29N 44°25' E 008°50'0 0.0
2018-May-08 04:59N 44°25' E 008°50'0 0.0
2018-May-08 04:29N 44°25' E 008°50'0 0.0
2018-May-08 03:52N 44°25' E 008°50'0 0.0
2018-May-08 03:25N 44°25' E 008°50'0 0.0
2018-May-08 02:55N 44°25' E 008°50'0 0.0
2018-May-08 02:25N 44°25' E 008°50'0 0.0
2018-May-08 01:55N 44°25' E 008°50'0 0.0
2018-May-08 01:28N 44°25' E 008°50'0 0.0
2018-May-08 01:00N 44°25' E 008°50'0 0.0
2018-May-08 00:30N 44°25' E 008°50'0 0.0
2018-May-08 00:00N 44°25' E 008°50'0 0.0
2018-May-07 23:30N 44°25' E 008°50'0 0.0
2018-May-07 23:00N 44°25' E 008°50'0 0.0
2018-May-07 22:30N 44°25' E 008°50'0 0.0
2018-May-07 22:00N 44°25' E 008°50'0 0.0
2018-May-07 21:30N 44°25' E 008°50'0 0.0
2018-May-07 21:00N 44°25' E 008°50'0 0.0
2018-May-07 20:27N 44°25' E 008°50'0 0.0
2018-May-07 20:00N 44°25' E 008°50'0 0.0
2018-May-07 19:30N 44°25' E 008°50'0 0.0
2018-May-07 18:59N 44°25' E 008°50'0 0.0
2018-May-07 18:29N 44°25' E 008°50'0 0.0
2018-May-07 18:00N 44°25' E 008°50'0 0.0
2018-May-07 17:30N 44°25' E 008°50'0 0.0
2018-May-07 16:57N 44°25' E 008°50'0 0.0
2018-May-07 16:30N 44°25' E 008°50'0 0.0
2018-May-07 15:56N 44°25' E 008°50'0 0.0
2018-May-07 15:26N 44°25' E 008°50'0 0.0
2018-May-07 14:56N 44°25' E 008°50'0 1.0
2018-May-07 14:30N 44°25' E 008°50'4 7.3
2018-May-07 14:00N 44°22' E 008°51'510.0
2018-May-07 13:30N 44°18' E 008°55'5 9.7
2018-May-07 13:00N 44°14' E 008°59'5 9.8
2018-May-07 12:29N 44°09' E 009°03'510.1
2018-May-07 12:00N 44°05' E 009°07'510.3
2018-May-07 11:30N 44°01' E 009°11'510.6
2018-May-07 11:00N 43°57' E 009°15'510.5
2018-May-07 10:30N 43°52' E 009°19'510.6
2018-May-07 10:00N 43°48' E 009°24'510.7
2018-May-07 09:30N 43°44' E 009°28'510.6
2018-May-07 09:00N 43°39' E 009°31'510.5
2018-May-07 08:30N 43°35' E 009°35'510.6
2018-May-07 08:00N 43°30' E 009°40'  
Track history (hours):
 
Tides and Currents Weather Stations Pressure Air Temp Water Temp Dewpoint Dewpoint Depression Visibility Wind Speed Wind Dir Waves Ship Positions

S/y Shadow

Last reported at 2018-May-15 13:31 UTC. Time now 2018-May-22 02:02 UTC.
Position N 44°24' E 008°56'.

Length 30 m.

Type: Sailing vessel. MMSI: 378111821.

Date/timePositionNaut miles runAvg speedWind from/ knotsBaromVisibWave heightAir tempDewpointWater temp
2018-May-15 13:31N 44°24' E 008°56'0 0.0
2018-May-15 13:25N 44°24' E 008°56'0 0.0
2018-May-15 12:57N 44°24' E 008°56'0 0.0
2018-May-15 12:30N 44°24' E 008°56'0 0.0
2018-May-15 11:59N 44°24' E 008°56'0 0.0
2018-May-15 11:29N 44°24' E 008°56'0 0.1
2018-May-15 10:59N 44°24' E 008°56'0 0.0
2018-May-15 10:29N 44°24' E 008°56'0 0.0
2018-May-15 09:56N 44°24' E 008°56'0 0.0
2018-May-15 09:26N 44°24' E 008°56'0 0.0
2018-May-15 08:56N 44°24' E 008°56'0 0.0
2018-May-15 08:29N 44°24' E 008°56'2 4.2
2018-May-15 08:00N 44°22' E 008°58'2 3.9
2018-May-15 07:30N 44°20' E 008°57'2 4.9
2018-May-15 07:00N 44°22' E 008°55'1 2.9
2018-May-15 06:30N 44°23' E 008°53'3 6.7
2018-May-15 06:00N 44°25' E 008°49'1 1.9
2018-May-15 05:30N 44°25' E 008°50'0 0.0
2018-May-15 05:00N 44°25' E 008°50'0 0.0
2018-May-15 04:30N 44°25' E 008°50'0 0.0
2018-May-15 04:00N 44°25' E 008°50'0 0.0
2018-May-15 03:30N 44°25' E 008°50'0 0.0
2018-May-15 03:00N 44°25' E 008°50'0 0.0
2018-May-15 02:30N 44°25' E 008°50'0 0.0
2018-May-15 01:57N 44°25' E 008°50'0 0.0
2018-May-15 01:30N 44°25' E 008°50'0 0.0
2018-May-15 01:00N 44°25' E 008°50'0 0.0
2018-May-15 00:30N 44°25' E 008°50'0 0.0
2018-May-15 00:00N 44°25' E 008°50'0 0.0
2018-May-14 23:30N 44°25' E 008°50'0 0.0
2018-May-14 23:00N 44°25' E 008°50'0 0.0
2018-May-14 22:30N 44°25' E 008°50'0 0.0
2018-May-14 22:00N 44°25' E 008°50'0 0.0
2018-May-14 21:30N 44°25' E 008°50'0 0.0
2018-May-14 21:00N 44°25' E 008°50'0 0.0
2018-May-14 20:30N 44°25' E 008°50'0 0.0
2018-May-14 20:00N 44°25' E 008°50'0 0.0
2018-May-14 19:30N 44°25' E 008°50'0 0.0
2018-May-14 19:00N 44°25' E 008°50'0 0.0
2018-May-14 18:30N 44°25' E 008°50'0 0.0
2018-May-14 18:00N 44°25' E 008°50'0 0.0
2018-May-14 17:30N 44°25' E 008°50'0 0.0
2018-May-14 17:00N 44°25' E 008°50'0 0.0
2018-May-14 16:30N 44°25' E 008°50'0 0.0
2018-May-14 15:59N 44°25' E 008°50'0 0.0
2018-May-14 15:30N 44°25' E 008°50'0 0.0
2018-May-14 14:55N 44°25' E 008°50'0 0.0
2018-May-14 14:25N 44°25' E 008°50'0 0.0
2018-May-14 13:55N 44°25' E 008°50'0 0.0
2018-May-14 13:30N 44°25' E 008°50'0 0.0
2018-May-14 12:57N 44°25' E 008°50'0 0.0
2018-May-14 12:28N 44°25' E 008°50'0 0.0
2018-May-14 11:55N 44°25' E 008°50'0 0.0
2018-May-14 11:30N 44°25' E 008°50'0 0.0
2018-May-14 11:00N 44°25' E 008°50'0 0.0
2018-May-14 10:30N 44°25' E 008°50'0 0.0
2018-May-14 10:00N 44°25' E 008°50'0 0.0
2018-May-14 09:30N 44°25' E 008°50'0 0.0
2018-May-14 09:00N 44°25' E 008°50'0 0.0
2018-May-14 08:30N 44°25' E 008°50'0 0.0
2018-May-14 08:00N 44°25' E 008°50'0 0.0
2018-May-14 07:29N 44°25' E 008°50'0 0.0
2018-May-14 06:58N 44°25' E 008°50'0 0.0
2018-May-14 06:25N 44°25' E 008°50'0 0.0
2018-May-14 05:55N 44°25' E 008°50'0 0.0
2018-May-14 05:25N 44°25' E 008°50'0 0.0
2018-May-14 04:55N 44°25' E 008°50'0 0.0
2018-May-14 04:25N 44°25' E 008°50'0 0.0
2018-May-14 04:00N 44°25' E 008°50'0 0.0
2018-May-14 03:26N 44°25' E 008°50'0 0.0
2018-May-14 02:53N 44°25' E 008°50'0 0.0
2018-May-14 02:26N 44°25' E 008°50'0 0.0
2018-May-14 01:59N 44°25' E 008°50'0 0.0
2018-May-14 01:29N 44°25' E 008°50'0 0.0
2018-May-14 00:57N 44°25' E 008°50'0 0.0
2018-May-14 00:27N 44°25' E 008°50'0 0.0
2018-May-13 23:57N 44°25' E 008°50'0 0.0
2018-May-13 23:27N 44°25' E 008°50'0 0.0
2018-May-13 22:57N 44°25' E 008°50'0 0.0
2018-May-13 22:30N 44°25' E 008°50'0 0.0
2018-May-13 22:00N 44°25' E 008°50'0 0.0
2018-May-13 21:29N 44°25' E 008°50'0 0.0
2018-May-13 20:59N 44°25' E 008°50'0 0.0
2018-May-13 20:30N 44°25' E 008°50'0 0.0
2018-May-13 20:00N 44°25' E 008°50'0 0.0
2018-May-13 19:30N 44°25' E 008°50'0 0.0
2018-May-13 18:56N 44°25' E 008°50'0 0.0
2018-May-13 18:30N 44°25' E 008°50'0 0.0
2018-May-13 18:00N 44°25' E 008°50'0 0.0
2018-May-13 17:27N 44°25' E 008°50'0 0.0
2018-May-13 17:00N 44°25' E 008°50'0 0.0
2018-May-13 16:27N 44°25' E 008°50'0 0.0
2018-May-13 16:00N 44°25' E 008°50'0 0.0
2018-May-13 15:29N 44°25' E 008°50'0 0.0
2018-May-13 14:59N 44°25' E 008°50'0 0.0
2018-May-13 14:29N 44°25' E 008°50'0 0.0
2018-May-13 13:59N 44°25' E 008°50'0 0.0
2018-May-13 13:30N 44°25' E 008°50'0 0.0
2018-May-13 12:58N 44°25' E 008°50'0 0.0
2018-May-13 12:27N 44°25' E 008°50'0 0.0
2018-May-13 11:57N 44°25' E 008°50'0 0.0
2018-May-13 11:27N 44°25' E 008°50'0 0.0
2018-May-13 10:57N 44°25' E 008°50'0 0.0
2018-May-13 10:30N 44°25' E 008°50'0 0.0
2018-May-13 09:59N 44°25' E 008°50'0 0.0
2018-May-13 09:29N 44°25' E 008°50'0 0.0
2018-May-13 08:56N 44°25' E 008°50'0 0.0
2018-May-13 08:26N 44°25' E 008°50'0 0.0
2018-May-13 07:54N 44°25' E 008°50'0 0.0
2018-May-13 07:29N 44°25' E 008°50'0 0.0
2018-May-13 06:56N 44°25' E 008°50'0 0.0
2018-May-13 06:29N 44°25' E 008°50'0 0.0
2018-May-13 05:56N 44°25' E 008°50'0 0.0
2018-May-13 05:29N 44°25' E 008°50'0 0.0
2018-May-13 04:59N 44°25' E 008°50'0 0.0
2018-May-13 04:29N 44°25' E 008°50'0 0.0
2018-May-13 04:00N 44°25' E 008°50'0 0.0
2018-May-13 03:29N 44°25' E 008°50'0 0.0
2018-May-13 02:58N 44°25' E 008°50'0 0.0
2018-May-13 02:28N 44°25' E 008°50'0 0.0
2018-May-13 01:58N 44°25' E 008°50'0 0.0
2018-May-13 01:30N 44°25' E 008°50'0 0.0
2018-May-13 00:57N 44°25' E 008°50'0 0.0
2018-May-13 00:30N 44°25' E 008°50'0 0.0
2018-May-13 00:00N 44°25' E 008°50'0 0.0
2018-May-12 23:30N 44°25' E 008°50'0 0.0
2018-May-12 23:00N 44°25' E 008°50'0 0.0
2018-May-12 22:30N 44°25' E 008°50'0 0.0
2018-May-12 22:00N 44°25' E 008°50'0 0.0
2018-May-12 21:30N 44°25' E 008°50'0 0.0
2018-May-12 21:00N 44°25' E 008°50'0 0.0
2018-May-12 20:30N 44°25' E 008°50'0 0.0
2018-May-12 19:57N 44°25' E 008°50'0 0.0
2018-May-12 19:27N 44°25' E 008°50'0 0.0
2018-May-12 18:57N 44°25' E 008°50'0 0.0
2018-May-12 18:25N 44°25' E 008°50'0 0.0
2018-May-12 17:58N 44°25' E 008°50'0 0.0
2018-May-12 17:29N 44°25' E 008°50'0 0.0
2018-May-12 16:59N 44°25' E 008°50'0 0.0
2018-May-12 16:29N 44°25' E 008°50'0 0.0
2018-May-12 16:00N 44°25' E 008°50'0 0.0
2018-May-12 15:28N 44°25' E 008°50'2 3.0
2018-May-12 14:58N 44°23' E 008°50'2 3.0
2018-May-12 14:28N 44°25' E 008°50'0 0.0
2018-May-12 13:58N 44°25' E 008°50'0 0.0
2018-May-12 13:26N 44°25' E 008°50'0 0.0
2018-May-12 12:57N 44°25' E 008°50'0 0.0
2018-May-12 12:30N 44°25' E 008°50'0 0.0
2018-May-12 12:00N 44°25' E 008°50'2 3.1
2018-May-12 11:30N 44°23' E 008°50'2 3.1
2018-May-12 11:00N 44°25' E 008°50'0 0.0
2018-May-12 10:27N 44°25' E 008°50'0 0.0
2018-May-12 09:58N 44°25' E 008°50'0 0.0
2018-May-12 09:28N 44°25' E 008°50'0 0.0
2018-May-12 08:58N 44°25' E 008°50'0 0.0
2018-May-12 08:28N 44°25' E 008°50'0 0.0
2018-May-12 08:00N 44°25' E 008°50'0 0.0
2018-May-12 07:28N 44°25' E 008°50'0 0.0
2018-May-12 06:58N 44°25' E 008°50'0 0.0
2018-May-12 06:28N 44°25' E 008°50'0 0.0
2018-May-12 05:58N 44°25' E 008°50'0 0.0
2018-May-12 05:28N 44°25' E 008°50'0 0.0
2018-May-12 04:58N 44°25' E 008°50'0 0.0
2018-May-12 04:30N 44°25' E 008°50'0 0.0
2018-May-12 03:55N 44°25' E 008°50'0 0.0
2018-May-12 03:25N 44°25' E 008°50'0 0.0
2018-May-12 02:55N 44°25' E 008°50'0 0.0
2018-May-12 02:25N 44°25' E 008°50'0 0.0
2018-May-12 01:55N 44°25' E 008°50'0 0.0
2018-May-12 01:25N 44°25' E 008°50'0 0.0
2018-May-12 00:55N 44°25' E 008°50'0 0.0
2018-May-12 00:25N 44°25' E 008°50'0 0.0
2018-May-12 00:00N 44°25' E 008°50'0 0.0
2018-May-11 23:30N 44°25' E 008°50'0 0.0
2018-May-11 23:00N 44°25' E 008°50'0 0.0
2018-May-11 22:30N 44°25' E 008°50'0 0.0
2018-May-11 21:59N 44°25' E 008°50'0 0.0
2018-May-11 21:29N 44°25' E 008°50'0 0.0
2018-May-11 20:59N 44°25' E 008°50'0 0.0
2018-May-11 20:29N 44°25' E 008°50'0 0.0
2018-May-11 19:59N 44°25' E 008°50'0 0.0
2018-May-11 19:28N 44°25' E 008°50'0 0.0
2018-May-11 18:58N 44°25' E 008°50'0 0.0
2018-May-11 18:26N 44°25' E 008°50'0 0.0
2018-May-11 17:56N 44°25' E 008°50'0 0.0
2018-May-11 17:30N 44°25' E 008°50'0 0.0
2018-May-11 17:00N 44°25' E 008°50'0 0.0
2018-May-11 16:30N 44°25' E 008°50'0 0.0
2018-May-11 16:00N 44°25' E 008°50'0 0.0
2018-May-11 15:29N 44°25' E 008°50'0 0.0
2018-May-11 14:59N 44°25' E 008°50'0 0.0
2018-May-11 14:29N 44°25' E 008°50'0 0.0
2018-May-11 13:59N 44°25' E 008°50'0 0.0
2018-May-11 13:30N 44°25' E 008°50'0 0.0
2018-May-11 12:59N 44°25' E 008°50'0 0.0
2018-May-11 12:28N 44°25' E 008°50'0 0.0
2018-May-11 11:58N 44°25' E 008°50'0 0.0
2018-May-11 11:28N 44°25' E 008°50'0 0.0
2018-May-11 10:58N 44°25' E 008°50'0 0.0
2018-May-11 10:30N 44°25' E 008°50'0 0.0
2018-May-11 10:00N 44°25' E 008°50'0 0.0
2018-May-11 09:30N 44°25' E 008°50'0 0.0
2018-May-11 09:00N 44°25' E 008°50'0 0.0
2018-May-11 08:30N 44°25' E 008°50'0 0.0
2018-May-11 08:00N 44°25' E 008°50'0 0.0
2018-May-11 07:30N 44°25' E 008°50'1 2.9
2018-May-11 07:00N 44°23' E 008°50'1 2.8
2018-May-11 06:27N 44°25' E 008°50'0 0.0
2018-May-11 05:54N 44°25' E 008°50'0 0.0
2018-May-11 05:27N 44°25' E 008°50'0 0.0
2018-May-11 04:57N 44°25' E 008°50'0 0.0
2018-May-11 04:27N 44°25' E 008°50'0 0.0
2018-May-11 03:57N 44°25' E 008°50'0 0.0
2018-May-11 03:25N 44°25' E 008°50'0 0.0
2018-May-11 02:55N 44°25' E 008°50'0 0.0
2018-May-11 02:25N 44°25' E 008°50'0 0.0
2018-May-11 01:55N 44°25' E 008°50'0 0.0
2018-May-11 01:28N 44°25' E 008°50'0 0.0
2018-May-11 00:58N 44°25' E 008°50'0 0.0
2018-May-11 00:29N 44°25' E 008°50'0 0.0
2018-May-10 23:53N 44°25' E 008°50'0 0.0
2018-May-10 23:24N 44°25' E 008°50'0 0.0
2018-May-10 22:57N 44°25' E 008°50'0 0.0
2018-May-10 22:30N 44°25' E 008°50'0 0.0
2018-May-10 21:52N 44°25' E 008°50'0 0.0
2018-May-10 21:25N 44°25' E 008°50'0 0.0
2018-May-10 20:55N 44°25' E 008°50'0 0.0
2018-May-10 20:28N 44°25' E 008°50'0 0.0
2018-May-10 19:58N 44°25' E 008°50'0 0.0
2018-May-10 19:28N 44°25' E 008°50'0 0.0
2018-May-10 18:57N 44°25' E 008°50'0 0.0
2018-May-10 18:19N 44°25' E 008°50'0 0.0
2018-May-10 17:57N 44°25' E 008°50'0 0.0
2018-May-10 17:28N 44°25' E 008°50'0 0.0
2018-May-10 17:00N 44°25' E 008°50'2 2.2
2018-May-10 16:20N 44°23' E 008°50'2 4.2
2018-May-10 15:58N 44°25' E 008°50'0 0.0
2018-May-10 15:30N 44°25' E 008°50'0 0.0
2018-May-10 15:00N 44°25' E 008°50'0 0.0
2018-May-10 14:31N 44°25' E 008°50'0 0.0
2018-May-10 14:00N 44°25' E 008°50'0 0.0
2018-May-10 13:27N 44°25' E 008°50'0 0.0
2018-May-10 12:59N 44°25' E 008°50'0 0.0
2018-May-10 12:28N 44°25' E 008°50'0 0.0
2018-May-10 11:49N 44°25' E 008°50'0 0.0
2018-May-10 11:25N 44°25' E 008°50'0 0.0
2018-May-10 10:52N 44°25' E 008°50'0 0.0
2018-May-10 10:25N 44°25' E 008°50'0 0.0
2018-May-10 09:55N 44°25' E 008°50'0 0.0
2018-May-10 09:25N 44°25' E 008°50'0 0.0
2018-May-10 08:55N 44°25' E 008°50'0 0.0
2018-May-10 08:25N 44°25' E 008°50'0 0.0
2018-May-10 07:55N 44°25' E 008°50'0 0.0
2018-May-10 07:28N 44°25' E 008°50'0 0.0
2018-May-10 06:58N 44°25' E 008°50'0 0.0
2018-May-10 06:25N 44°25' E 008°50'0 0.0
2018-May-10 05:55N 44°25' E 008°50'0 0.0
2018-May-10 05:23N 44°25' E 008°50'0 0.0
2018-May-10 04:59N 44°25' E 008°50'0 0.0
2018-May-10 04:29N 44°25' E 008°50'0 0.0
2018-May-10 03:59N 44°25' E 008°50'0 0.0
2018-May-10 03:30N 44°25' E 008°50'0 0.0
2018-May-10 03:00N 44°25' E 008°50'0 0.0
2018-May-10 02:30N 44°25' E 008°50'0 0.0
2018-May-10 01:58N 44°25' E 008°50'0 0.0
2018-May-10 01:28N 44°25' E 008°50'0 0.0
2018-May-10 00:58N 44°25' E 008°50'0 0.0
2018-May-10 00:28N 44°25' E 008°50'0 0.0
2018-May-10 00:00N 44°25' E 008°50'0 0.0
2018-May-09 23:30N 44°25' E 008°50'0 0.0
2018-May-09 22:57N 44°25' E 008°50'0 0.0
2018-May-09 22:30N 44°25' E 008°50'0 0.0
2018-May-09 21:58N 44°25' E 008°50'0 0.0
2018-May-09 21:28N 44°25' E 008°50'0 0.0
2018-May-09 20:58N 44°25' E 008°50'0 0.0
2018-May-09 20:28N 44°25' E 008°50'0 0.0
2018-May-09 20:00N 44°25' E 008°50'0 0.0
2018-May-09 19:30N 44°25' E 008°50'0 0.0
2018-May-09 18:56N 44°25' E 008°50'0 0.0
2018-May-09 18:28N 44°25' E 008°50'0 0.0
2018-May-09 17:55N 44°25' E 008°50'0 0.0
2018-May-09 17:19N 44°25' E 008°50'0 0.0
2018-May-09 16:55N 44°25' E 008°50'0 0.0
2018-May-09 16:25N 44°25' E 008°50'0 0.0
2018-May-09 16:00N 44°25' E 008°50'0 0.0
2018-May-09 15:30N 44°25' E 008°50'0 0.0
2018-May-09 15:00N 44°25' E 008°50'0 0.0
2018-May-09 14:30N 44°25' E 008°50'0 0.0
2018-May-09 13:59N 44°25' E 008°50'0 0.0
2018-May-09 13:30N 44°25' E 008°50'0 0.0
2018-May-09 12:55N 44°25' E 008°50'0 0.0
2018-May-09 12:25N 44°25' E 008°50'0 0.0
2018-May-09 11:57N 44°25' E 008°50'0 0.0
2018-May-09 11:25N 44°25' E 008°50'0 0.0
2018-May-09 10:55N 44°25' E 008°50'0 0.0
2018-May-09 10:30N 44°25' E 008°50'0 0.0
2018-May-09 10:00N 44°25' E 008°50'0 0.0
2018-May-09 09:30N 44°25' E 008°50'0 0.0
2018-May-09 09:00N 44°25' E 008°50'0 0.0
2018-May-09 08:25N 44°25' E 008°50'0 0.0
2018-May-09 07:58N 44°25' E 008°50'0 0.0
2018-May-09 07:28N 44°25' E 008°50'0 0.0
2018-May-09 07:00N 44°25' E 008°50'0 0.0
2018-May-09 06:27N 44°25' E 008°50'0 0.0
2018-May-09 06:00N 44°25' E 008°50'0 0.0
2018-May-09 05:23N 44°25' E 008°50'0 0.0
2018-May-09 04:58N 44°25' E 008°50'0 0.0
2018-May-09 04:27N 44°25' E 008°50'0 0.0
2018-May-09 03:57N 44°25' E 008°50'0 0.0
2018-May-09 03:27N 44°25' E 008°50'0 0.0
2018-May-09 02:57N 44°25' E 008°50'0 0.0
2018-May-09 02:27N 44°25' E 008°50'0 0.0
2018-May-09 01:57N 44°25' E 008°50'0 0.0
2018-May-09 01:27N 44°25' E 008°50'0 0.0
2018-May-09 01:00N 44°25' E 008°50'0 0.0
2018-May-09 00:25N 44°25' E 008°50'0 0.0
2018-May-08 23:55N 44°25' E 008°50'0 0.0
2018-May-08 23:25N 44°25' E 008°50'0 0.0
2018-May-08 22:55N 44°25' E 008°50'0 0.0
2018-May-08 22:29N 44°25' E 008°50'0 0.0
2018-May-08 21:59N 44°25' E 008°50'0 0.0
2018-May-08 21:29N 44°25' E 008°50'0 0.0
2018-May-08 20:59N 44°25' E 008°50'0 0.0
2018-May-08 20:30N 44°25' E 008°50'0 0.0
2018-May-08 20:00N 44°25' E 008°50'0 0.0
2018-May-08 19:30N 44°25' E 008°50'0 0.0
2018-May-08 18:56N 44°25' E 008°50'0 0.0
2018-May-08 18:26N 44°25' E 008°50'0 0.0
2018-May-08 17:59N 44°25' E 008°50'0 0.0
2018-May-08 17:29N 44°25' E 008°50'0 0.0
2018-May-08 16:59N 44°25' E 008°50'0 0.0
2018-May-08 16:29N 44°25' E 008°50'0 0.0
2018-May-08 15:58N 44°25' E 008°50'0 0.0
2018-May-08 15:28N 44°25' E 008°50'0 0.0
2018-May-08 14:59N 44°25' E 008°50'0 0.0
2018-May-08 14:29N 44°25' E 008°50'0 0.0
2018-May-08 13:59N 44°25' E 008°50'0 0.0
2018-May-08 13:30N 44°25' E 008°50'0 0.0
2018-May-08 12:58N 44°25' E 008°50'0 0.0
2018-May-08 12:28N 44°25' E 008°50'0 0.0
2018-May-08 11:59N 44°25' E 008°50'0 0.0
2018-May-08 11:28N 44°25' E 008°50'0 0.0
2018-May-08 10:58N 44°25' E 008°50'0 0.0
2018-May-08 10:29N 44°25' E 008°50'0 0.0
2018-May-08 09:59N 44°25' E 008°50'0 0.0
2018-May-08 09:29N 44°25' E 008°50'0 0.0
2018-May-08 08:53N 44°25' E 008°50'0 0.0
2018-May-08 08:29N 44°25' E 008°50'0 0.0
2018-May-08 07:59N 44°25' E 008°50'0 0.0
2018-May-08 07:30N 44°25' E 008°50'0 0.0
2018-May-08 06:57N 44°25' E 008°50'0 0.0
2018-May-08 06:30N 44°25' E 008°50'0 0.0
2018-May-08 05:54N 44°25' E 008°50'0 0.0
2018-May-08 05:29N 44°25' E 008°50'0 0.0
2018-May-08 04:59N 44°25' E 008°50'0 0.0
2018-May-08 04:29N 44°25' E 008°50'0 0.0
2018-May-08 03:52N 44°25' E 008°50'0 0.0
2018-May-08 03:25N 44°25' E 008°50'0 0.0
2018-May-08 02:55N 44°25' E 008°50'0 0.0
2018-May-08 02:25N 44°25' E 008°50'0 0.0
2018-May-08 01:55N 44°25' E 008°50'0 0.0
2018-May-08 01:28N 44°25' E 008°50'0 0.0
2018-May-08 01:00N 44°25' E 008°50'0 0.0
2018-May-08 00:30N 44°25' E 008°50'0 0.0
2018-May-08 00:00N 44°25' E 008°50'0 0.0
2018-May-07 23:30N 44°25' E 008°50'0 0.0
2018-May-07 23:00N 44°25' E 008°50'0 0.0
2018-May-07 22:30N 44°25' E 008°50'0 0.0
2018-May-07 22:00N 44°25' E 008°50'0 0.0
2018-May-07 21:30N 44°25' E 008°50'0 0.0
2018-May-07 21:00N 44°25' E 008°50'0 0.0
2018-May-07 20:27N 44°25' E 008°50'0 0.0
2018-May-07 20:00N 44°25' E 008°50'0 0.0
2018-May-07 19:30N 44°25' E 008°50'0 0.0
2018-May-07 18:59N 44°25' E 008°50'0 0.0
2018-May-07 18:29N 44°25' E 008°50'0 0.0
2018-May-07 18:00N 44°25' E 008°50'0 0.0
2018-May-07 17:30N 44°25' E 008°50'0 0.0
2018-May-07 16:57N 44°25' E 008°50'0 0.0
2018-May-07 16:30N 44°25' E 008°50'0 0.0
2018-May-07 15:56N 44°25' E 008°50'0 0.0
2018-May-07 15:26N 44°25' E 008°50'0 0.0
2018-May-07 14:56N 44°25' E 008°50'0 1.0
2018-May-07 14:30N 44°25' E 008°50'4 7.3
2018-May-07 14:00N 44°22' E 008°51'510.0
2018-May-07 13:30N 44°18' E 008°55'5 9.7
2018-May-07 13:00N 44°14' E 008°59'5 9.8
2018-May-07 12:29N 44°09' E 009°03'510.1
2018-May-07 12:00N 44°05' E 009°07'510.3
2018-May-07 11:30N 44°01' E 009°11'510.6
2018-May-07 11:00N 43°57' E 009°15'510.5
2018-May-07 10:30N 43°52' E 009°19'510.6
2018-May-07 10:00N 43°48' E 009°24'510.7
2018-May-07 09:30N 43°44' E 009°28'510.6
2018-May-07 09:00N 43°39' E 009°31'510.5
2018-May-07 08:30N 43°35' E 009°35'510.6
2018-May-07 08:00N 43°30' E 009°40'  

Dump ship's entire track history